createdAt,value
2023-03-31T00:01:52.968Z,8.42
2023-03-31T00:04:24.463Z,8.46
2023-03-31T00:06:54.352Z,8.51
2023-03-31T00:09:22.177Z,8.48
2023-03-31T00:11:49.938Z,8.54
2023-03-31T00:14:17.980Z,8.57
2023-03-31T00:16:45.370Z,8.52
2023-03-31T00:19:18.184Z,8.55
2023-03-31T00:21:46.763Z,8.67
2023-03-31T00:24:14.748Z,8.71
2023-03-31T00:26:41.479Z,8.71
2023-03-31T00:29:10.272Z,8.78
2023-03-31T00:31:38.781Z,8.73
2023-03-31T00:34:06.342Z,8.73
2023-03-31T00:36:37.012Z,8.69
2023-03-31T00:39:09.559Z,8.63
2023-03-31T00:41:39.297Z,8.45
2023-03-31T00:44:14.705Z,8.29
2023-03-31T00:46:55.780Z,8.25
2023-03-31T00:49:25.971Z,8.26
2023-03-31T00:51:56.396Z,8.24
2023-03-31T00:54:26.624Z,8.14
2023-03-31T00:56:58.263Z,7.79
2023-03-31T00:59:27.820Z,7.55
2023-03-31T01:01:59.309Z,7.42
2023-03-31T01:04:26.451Z,7.34
2023-03-31T01:07:16.940Z,7.46
2023-03-31T01:09:47.392Z,7.88
2023-03-31T01:12:17.029Z,7.95
2023-03-31T01:14:43.932Z,7.87
2023-03-31T01:17:10.768Z,7.76
2023-03-31T01:19:47.551Z,7.63
2023-03-31T01:22:51.526Z,7.76
2023-03-31T01:25:27.101Z,8.08
2023-03-31T01:28:03.155Z,8.25
2023-03-31T01:30:52.947Z,8.45
2023-03-31T01:33:39.704Z,8.62
2023-03-31T01:36:16.288Z,8.63
2023-03-31T01:38:55.185Z,8.67
2023-03-31T01:41:50.479Z,8.61
2023-03-31T01:44:40.510Z,8.57
2023-03-31T01:47:14.354Z,8.43
2023-03-31T01:50:35.679Z,8.29
2023-03-31T01:53:06.292Z,8.10
2023-03-31T01:55:40.621Z,7.82
2023-03-31T01:58:11.553Z,7.74
2023-03-31T02:00:42.946Z,7.60
2023-03-31T02:03:17.867Z,7.70
2023-03-31T02:05:51.595Z,7.58
2023-03-31T02:08:25.505Z,7.44
2023-03-31T02:10:53.713Z,7.18
2023-03-31T02:13:23.328Z,7.19
2023-03-31T02:15:58.099Z,7.41
2023-03-31T02:18:30.667Z,8.00
2023-03-31T02:20:59.407Z,8.32
2023-03-31T02:23:32.033Z,8.45
2023-03-31T02:26:24.079Z,8.32
2023-03-31T02:28:51.062Z,8.09
2023-03-31T02:31:56.432Z,7.86
2023-03-31T02:34:23.663Z,7.85
2023-03-31T02:36:50.584Z,8.06
2023-03-31T02:39:21.711Z,8.18
2023-03-31T02:41:48.292Z,8.64
2023-03-31T02:44:17.362Z,8.91
2023-03-31T02:46:45.813Z,9.04
2023-03-31T02:49:14.976Z,8.83
2023-03-31T02:52:07.960Z,8.77
2023-03-31T02:54:50.800Z,8.77
2023-03-31T02:57:41.807Z,9.09
2023-03-31T03:00:30.287Z,8.86
2023-03-31T03:03:31.251Z,8.48
2023-03-31T03:06:32.165Z,8.24
2023-03-31T03:09:45.524Z,8.39
2023-03-31T03:12:23.071Z,8.76
2023-03-31T03:15:07.068Z,8.85
2023-03-31T03:17:33.932Z,8.79
2023-03-31T03:20:07.858Z,8.71
2023-03-31T03:22:36.018Z,8.70
2023-03-31T03:25:02.956Z,8.83
2023-03-31T03:27:30.300Z,8.59
2023-03-31T03:29:56.992Z,8.42
2023-03-31T03:32:23.838Z,8.16
2023-03-31T03:34:50.392Z,7.95
2023-03-31T03:37:16.971Z,7.89
2023-03-31T03:39:43.623Z,7.78
2023-03-31T03:42:10.252Z,7.71
2023-03-31T03:44:36.799Z,7.62
2023-03-31T03:47:03.654Z,7.38
2023-03-31T03:49:30.504Z,7.14
2023-03-31T03:51:57.168Z,7.14
2023-03-31T03:54:23.906Z,7.11
2023-03-31T03:56:50.503Z,7.29
2023-03-31T03:59:17.130Z,7.21
2023-03-31T04:01:43.714Z,7.08
2023-03-31T04:04:10.390Z,7.08
2023-03-31T04:06:37.072Z,7.00
2023-03-31T04:09:04.076Z,7.00
2023-03-31T04:11:31.124Z,7.02
2023-03-31T04:13:57.727Z,7.10
2023-03-31T04:16:25.520Z,7.16
2023-03-31T04:18:56.777Z,7.19
2023-03-31T04:21:23.817Z,7.13
2023-03-31T04:24:07.484Z,7.07
2023-03-31T04:26:53.145Z,6.99
2023-03-31T04:29:22.415Z,6.93
2023-03-31T04:31:50.823Z,6.92
2023-03-31T04:34:17.514Z,6.85
2023-03-31T04:36:49.375Z,6.85
2023-03-31T04:39:18.600Z,6.89
2023-03-31T04:41:45.439Z,6.92
2023-03-31T04:44:12.271Z,6.84
2023-03-31T04:46:38.799Z,6.72
2023-03-31T04:49:06.011Z,6.65
2023-03-31T04:51:32.973Z,6.55
2023-03-31T04:53:59.764Z,6.59
2023-03-31T04:56:26.825Z,6.60
2023-03-31T04:58:53.617Z,6.66
2023-03-31T05:01:20.507Z,6.75
2023-03-31T05:03:47.985Z,6.72
2023-03-31T05:06:16.368Z,6.80
2023-03-31T05:08:43.942Z,6.77
2023-03-31T05:11:11.127Z,6.80
2023-03-31T05:13:38.048Z,6.83
2023-03-31T05:16:09.797Z,6.83
2023-03-31T05:18:36.831Z,6.91
2023-03-31T05:21:14.385Z,6.96
2023-03-31T05:23:41.847Z,7.09
2023-03-31T05:26:09.254Z,7.08
2023-03-31T05:28:36.487Z,7.13
2023-03-31T05:31:04.586Z,7.16
2023-03-31T05:33:31.909Z,7.26
2023-03-31T05:36:00.376Z,7.22
2023-03-31T05:38:31.859Z,7.23
2023-03-31T05:40:58.631Z,7.20
2023-03-31T05:43:25.388Z,7.16
2023-03-31T05:45:52.225Z,7.19
2023-03-31T05:48:18.969Z,7.23
2023-03-31T05:50:45.976Z,7.29
2023-03-31T05:53:12.573Z,7.37
2023-03-31T05:55:39.373Z,7.38
2023-03-31T05:58:06.830Z,7.43
2023-03-31T06:00:33.854Z,7.46
2023-03-31T06:03:00.524Z,7.43
2023-03-31T06:05:27.636Z,7.47
2023-03-31T06:07:54.330Z,7.56
2023-03-31T06:10:20.907Z,7.63
2023-03-31T06:12:47.717Z,7.66
2023-03-31T06:15:14.267Z,7.67
2023-03-31T06:17:41.226Z,7.69
2023-03-31T06:20:20.163Z,7.78
2023-03-31T06:22:51.235Z,7.83
2023-03-31T06:25:17.997Z,7.87
2023-03-31T06:27:44.755Z,7.87
2023-03-31T06:30:12.009Z,7.97
2023-03-31T06:32:38.576Z,8.03
2023-03-31T06:35:05.981Z,8.09
2023-03-31T06:37:32.632Z,8.06
2023-03-31T06:39:59.195Z,7.95
2023-03-31T06:42:26.239Z,7.95
2023-03-31T06:44:52.819Z,8.02
2023-03-31T06:47:19.579Z,7.95
2023-03-31T06:49:46.455Z,7.90
2023-03-31T06:52:13.135Z,7.87
2023-03-31T06:54:39.723Z,7.83
2023-03-31T06:57:06.334Z,7.86
2023-03-31T06:59:33.026Z,7.79
2023-03-31T07:01:59.684Z,7.93
2023-03-31T07:04:29.378Z,7.94
2023-03-31T07:06:57.852Z,7.78
2023-03-31T07:09:24.423Z,7.72
2023-03-31T07:11:50.964Z,7.79
2023-03-31T07:14:17.737Z,8.16
2023-03-31T07:16:44.522Z,7.85
2023-03-31T07:19:11.436Z,7.87
2023-03-31T07:21:38.363Z,7.71
2023-03-31T07:24:05.283Z,7.97
2023-03-31T07:26:32.116Z,7.71
2023-03-31T07:28:59.196Z,7.65
2023-03-31T07:31:26.391Z,7.56
2023-03-31T07:33:53.282Z,7.56
2023-03-31T07:36:20.751Z,7.53
2023-03-31T07:38:49.180Z,7.47
2023-03-31T07:41:20.983Z,7.44
2023-03-31T07:43:48.998Z,7.42
2023-03-31T07:46:25.017Z,7.53
2023-03-31T07:48:53.534Z,7.65
2023-03-31T07:51:22.851Z,7.77
2023-03-31T07:53:52.060Z,7.87
2023-03-31T07:56:23.914Z,8.00
2023-03-31T07:58:56.169Z,8.01
2023-03-31T08:01:26.428Z,8.07
2023-03-31T08:03:55.372Z,8.05
2023-03-31T08:06:24.450Z,7.93
2023-03-31T08:08:51.432Z,7.89
2023-03-31T08:11:18.920Z,7.91
2023-03-31T08:13:45.727Z,7.97
2023-03-31T08:16:12.606Z,8.01
2023-03-31T08:18:39.215Z,8.24
2023-03-31T08:21:06.411Z,8.61
2023-03-31T08:23:33.104Z,8.61
2023-03-31T08:26:18.556Z,8.63
2023-03-31T08:28:46.485Z,8.57
2023-03-31T08:31:16.274Z,8.57
2023-03-31T08:33:43.497Z,8.74
2023-03-31T08:36:11.102Z,9.04
2023-03-31T08:38:46.006Z,9.30
2023-03-31T08:41:36.689Z,9.01
2023-03-31T08:44:14.483Z,8.72
2023-03-31T08:46:43.214Z,8.81
2023-03-31T08:49:16.617Z,8.90
2023-03-31T08:52:19.368Z,8.89
2023-03-31T08:54:55.262Z,9.22
2023-03-31T08:57:32.059Z,9.48
2023-03-31T09:00:06.823Z,9.48
2023-03-31T09:03:12.342Z,9.75
2023-03-31T09:06:00.039Z,9.78
2023-03-31T09:08:36.293Z,10.55
2023-03-31T09:11:11.929Z,11.23
2023-03-31T09:13:59.095Z,11.43
2023-03-31T09:16:38.798Z,11.20
2023-03-31T09:19:18.263Z,11.42
2023-03-31T09:21:49.853Z,12.03
2023-03-31T09:24:23.728Z,11.80
2023-03-31T09:26:55.592Z,11.78
2023-03-31T09:29:43.748Z,11.78
2023-03-31T09:32:19.039Z,12.13
2023-03-31T09:34:47.076Z,12.09
2023-03-31T09:37:14.070Z,11.98
2023-03-31T09:39:41.228Z,12.26
2023-03-31T09:42:12.614Z,11.88
2023-03-31T09:44:42.083Z,12.46
2023-03-31T09:47:40.601Z,12.79
2023-03-31T09:50:09.338Z,12.36
2023-03-31T09:52:40.717Z,12.10
2023-03-31T09:55:28.381Z,12.38
2023-03-31T09:58:07.465Z,12.56
2023-03-31T10:00:34.967Z,12.40
2023-03-31T10:03:07.184Z,12.93
2023-03-31T10:05:41.296Z,13.17
2023-03-31T10:08:17.140Z,13.26
2023-03-31T10:10:50.195Z,12.52
2023-03-31T10:13:20.811Z,12.35
2023-03-31T10:15:47.382Z,12.47
2023-03-31T10:18:16.544Z,12.40
2023-03-31T10:20:53.462Z,12.37
2023-03-31T10:23:33.183Z,12.33
2023-03-31T10:26:02.570Z,12.54
2023-03-31T10:28:34.379Z,13.05
2023-03-31T10:31:01.733Z,13.67
2023-03-31T10:33:31.849Z,14.25
2023-03-31T10:36:00.534Z,14.29
2023-03-31T10:38:30.604Z,14.11
2023-03-31T10:40:59.520Z,13.73
2023-03-31T10:43:50.437Z,13.70
2023-03-31T10:46:17.682Z,13.68
2023-03-31T10:48:45.989Z,13.47
2023-03-31T10:51:16.767Z,13.28
2023-03-31T10:53:53.594Z,12.97
2023-03-31T10:56:35.502Z,12.62
2023-03-31T10:59:13.975Z,12.37
2023-03-31T11:01:45.741Z,12.20
2023-03-31T11:04:33.820Z,12.11
2023-03-31T11:07:03.646Z,12.00
2023-03-31T11:10:11.492Z,11.27
2023-03-31T11:13:00.320Z,9.51
2023-03-31T11:15:35.939Z,8.86
2023-03-31T11:18:14.468Z,8.60
2023-03-31T11:20:51.387Z,8.48
2023-03-31T11:23:31.844Z,8.55
2023-03-31T11:26:14.587Z,8.50
2023-03-31T11:29:02.595Z,8.60
2023-03-31T11:31:32.543Z,8.98
2023-03-31T11:34:17.839Z,9.17
2023-03-31T11:36:52.827Z,9.41
2023-03-31T11:39:38.946Z,9.57
2023-03-31T11:42:21.649Z,9.87
2023-03-31T11:44:53.215Z,10.04
2023-03-31T11:47:25.666Z,10.44
2023-03-31T11:50:00.012Z,10.71
2023-03-31T11:52:33.940Z,11.32
2023-03-31T11:55:03.931Z,12.39
2023-03-31T11:57:41.617Z,12.52
2023-03-31T12:00:21.042Z,12.79
2023-03-31T12:02:59.699Z,12.29
2023-03-31T12:05:28.965Z,12.94
2023-03-31T12:08:22.176Z,12.83
2023-03-31T12:10:55.826Z,12.48
2023-03-31T12:13:35.898Z,12.78
2023-03-31T12:16:12.824Z,13.51
2023-03-31T12:18:49.808Z,13.83
2023-03-31T12:21:17.339Z,14.21
2023-03-31T12:23:50.362Z,14.16
2023-03-31T12:26:42.296Z,13.83
2023-03-31T12:29:36.379Z,12.88
2023-03-31T12:32:14.153Z,12.65
2023-03-31T12:35:10.988Z,12.45
2023-03-31T12:37:56.679Z,12.13
2023-03-31T12:40:57.077Z,12.01
2023-03-31T12:43:42.372Z,11.63
2023-03-31T12:46:36.302Z,11.26
2023-03-31T12:49:23.363Z,11.01
2023-03-31T12:51:59.842Z,10.75
2023-03-31T12:54:44.412Z,10.55
2023-03-31T12:57:11.264Z,10.48
2023-03-31T12:59:41.001Z,10.34
2023-03-31T13:02:16.619Z,10.10
2023-03-31T13:04:44.330Z,9.73
2023-03-31T13:07:28.207Z,8.80
2023-03-31T13:10:22.420Z,8.18
2023-03-31T13:13:11.958Z,8.55
2023-03-31T13:15:38.866Z,9.29
2023-03-31T13:18:07.520Z,10.26
2023-03-31T13:20:39.270Z,10.58
2023-03-31T13:23:11.464Z,10.39
2023-03-31T13:25:45.479Z,10.44
2023-03-31T13:28:34.403Z,11.56
2023-03-31T13:31:02.476Z,12.05
2023-03-31T13:33:47.156Z,12.59
2023-03-31T13:36:32.598Z,12.77
2023-03-31T13:39:38.034Z,12.92
2023-03-31T13:42:26.047Z,12.62
2023-03-31T13:44:55.789Z,12.57
2023-03-31T13:47:54.287Z,12.73
2023-03-31T13:50:38.410Z,12.76
2023-03-31T13:53:20.421Z,12.34
2023-03-31T13:56:01.116Z,12.12
2023-03-31T13:58:58.429Z,11.84
2023-03-31T14:01:44.780Z,11.98
2023-03-31T14:04:51.380Z,11.53
2023-03-31T14:07:22.540Z,11.29
2023-03-31T14:09:52.513Z,11.41
2023-03-31T14:12:31.214Z,11.32
2023-03-31T14:14:58.138Z,11.23
2023-03-31T14:17:35.915Z,11.11
2023-03-31T14:20:26.090Z,10.97
2023-03-31T14:22:56.492Z,10.64
2023-03-31T14:25:50.327Z,9.43
2023-03-31T14:28:18.668Z,8.23
2023-03-31T14:31:06.611Z,7.49
2023-03-31T14:33:50.782Z,7.08
2023-03-31T14:36:39.588Z,6.95
2023-03-31T14:39:10.850Z,6.94
2023-03-31T14:41:38.100Z,7.10
2023-03-31T14:44:12.746Z,7.75
2023-03-31T14:46:39.947Z,8.50
2023-03-31T14:49:18.560Z,10.20
2023-03-31T14:51:45.824Z,11.70
2023-03-31T14:54:18.407Z,12.00
2023-03-31T14:56:49.910Z,13.29
2023-03-31T14:59:23.201Z,13.22
2023-03-31T15:01:51.323Z,13.34
2023-03-31T15:04:28.800Z,13.45
2023-03-31T15:07:04.993Z,12.76
2023-03-31T15:09:35.452Z,12.40
2023-03-31T15:12:12.232Z,12.12
2023-03-31T15:15:04.086Z,11.56
2023-03-31T15:17:37.495Z,11.72
2023-03-31T15:20:22.216Z,11.40
2023-03-31T15:22:48.798Z,11.38
2023-03-31T15:25:18.393Z,10.90
2023-03-31T15:27:54.051Z,10.99
2023-03-31T15:30:25.585Z,11.01
2023-03-31T15:32:58.792Z,11.04
2023-03-31T15:35:34.133Z,11.23
2023-03-31T15:38:05.253Z,11.07
2023-03-31T15:40:39.757Z,11.30
2023-03-31T15:43:31.292Z,11.21
2023-03-31T15:46:02.050Z,11.41
2023-03-31T15:48:36.751Z,11.21
2023-03-31T15:51:28.555Z,11.39
2023-03-31T15:53:55.431Z,11.75
2023-03-31T15:56:38.219Z,11.66
2023-03-31T15:59:06.341Z,11.64
2023-03-31T16:01:38.961Z,11.54
2023-03-31T16:04:09.592Z,11.21
2023-03-31T16:06:58.690Z,11.15
2023-03-31T16:09:41.648Z,11.02
2023-03-31T16:12:17.184Z,10.67
2023-03-31T16:14:54.065Z,10.91
2023-03-31T16:17:29.385Z,10.99
2023-03-31T16:20:02.198Z,11.15
2023-03-31T16:22:37.368Z,11.06
2023-03-31T16:25:10.342Z,10.83
2023-03-31T16:27:40.966Z,10.56
2023-03-31T16:30:11.436Z,10.41
2023-03-31T16:32:38.274Z,10.54
2023-03-31T16:35:06.242Z,10.67
2023-03-31T16:37:33.056Z,10.32
2023-03-31T16:39:59.674Z,10.12
2023-03-31T16:42:27.249Z,9.44
2023-03-31T16:45:12.724Z,8.66
2023-03-31T16:47:43.668Z,7.82
2023-03-31T16:50:12.018Z,7.59
2023-03-31T16:52:39.800Z,7.49
2023-03-31T16:55:06.746Z,7.34
2023-03-31T16:57:33.573Z,7.17
2023-03-31T17:00:00.558Z,7.11
2023-03-31T17:02:27.301Z,7.09
2023-03-31T17:04:56.573Z,7.15
2023-03-31T17:07:26.166Z,7.14
2023-03-31T17:09:53.122Z,7.26
2023-03-31T17:12:19.646Z,7.30
2023-03-31T17:14:46.632Z,7.21
2023-03-31T17:17:14.807Z,7.14
2023-03-31T17:19:43.298Z,7.00
2023-03-31T17:22:09.853Z,6.83
2023-03-31T17:24:36.737Z,6.88
2023-03-31T17:27:03.375Z,6.84
2023-03-31T17:29:30.273Z,6.84
2023-03-31T17:31:57.184Z,6.83
2023-03-31T17:34:24.024Z,6.87
2023-03-31T17:36:51.603Z,6.85
2023-03-31T17:39:18.479Z,6.84
2023-03-31T17:41:45.055Z,6.86
2023-03-31T17:44:12.359Z,7.02
2023-03-31T17:46:39.148Z,6.95
2023-03-31T17:49:05.749Z,6.99
2023-03-31T17:51:34.545Z,7.16
2023-03-31T17:54:03.311Z,7.01
2023-03-31T17:56:30.163Z,7.01
2023-03-31T17:58:57.385Z,7.03
2023-03-31T18:01:24.053Z,7.17
2023-03-31T18:03:50.754Z,7.23
2023-03-31T18:06:17.929Z,7.07
2023-03-31T18:08:44.793Z,7.32
2023-03-31T18:11:13.252Z,7.13
2023-03-31T18:13:40.537Z,7.16
2023-03-31T18:16:09.513Z,7.13
2023-03-31T18:18:37.911Z,7.16
2023-03-31T18:21:07.528Z,7.20
2023-03-31T18:23:35.028Z,7.13
2023-03-31T18:26:02.380Z,7.11
2023-03-31T18:28:29.113Z,7.05
2023-03-31T18:30:56.476Z,7.06
2023-03-31T18:33:23.513Z,7.04
2023-03-31T18:35:50.388Z,6.89
2023-03-31T18:38:18.597Z,7.02
2023-03-31T18:40:53.410Z,7.08
2023-03-31T18:43:24.461Z,7.08
2023-03-31T18:45:53.809Z,7.05
2023-03-31T18:48:22.095Z,7.06
2023-03-31T18:50:51.711Z,7.00
2023-03-31T18:53:19.479Z,7.13
2023-03-31T18:55:57.217Z,7.21
2023-03-31T18:58:25.938Z,7.09
2023-03-31T19:00:52.677Z,7.16
2023-03-31T19:03:19.359Z,7.11
2023-03-31T19:05:46.647Z,7.12
2023-03-31T19:08:13.514Z,7.20
2023-03-31T19:10:40.404Z,7.24
2023-03-31T19:13:07.693Z,7.32
2023-03-31T19:15:37.133Z,7.46
2023-03-31T19:18:04.245Z,7.57
2023-03-31T19:20:30.970Z,7.51
2023-03-31T19:22:57.560Z,7.48
2023-03-31T19:25:24.235Z,7.48
2023-03-31T19:27:51.693Z,7.69
2023-03-31T19:30:21.578Z,7.58
2023-03-31T19:32:49.256Z,7.75
2023-03-31T19:35:18.157Z,7.62
2023-03-31T19:37:45.818Z,7.65
2023-03-31T19:40:12.531Z,7.80
2023-03-31T19:42:39.422Z,7.68
2023-03-31T19:45:06.689Z,7.62
2023-03-31T19:47:33.428Z,7.64
2023-03-31T19:50:00.649Z,7.58
2023-03-31T19:52:28.893Z,7.74
2023-03-31T19:54:55.429Z,7.62
2023-03-31T19:57:22.609Z,7.58
2023-03-31T19:59:49.715Z,7.59
2023-03-31T20:02:16.468Z,7.57
2023-03-31T20:04:43.826Z,7.55
2023-03-31T20:07:10.547Z,7.53
2023-03-31T20:09:37.207Z,7.42
2023-03-31T20:12:04.259Z,7.60
2023-03-31T20:14:31.027Z,7.57
2023-03-31T20:17:00.856Z,7.60
2023-03-31T20:19:27.840Z,7.50
2023-03-31T20:21:56.013Z,7.56
2023-03-31T20:24:22.695Z,7.74
2023-03-31T20:26:49.584Z,7.75
2023-03-31T20:29:16.571Z,7.80
2023-03-31T20:31:43.219Z,7.92
2023-03-31T20:34:16.592Z,7.77
2023-03-31T20:36:45.685Z,7.53
2023-03-31T20:39:14.324Z,7.72
2023-03-31T20:41:41.463Z,7.67
2023-03-31T20:44:12.663Z,7.63
2023-03-31T20:46:41.746Z,7.66
2023-03-31T20:49:08.494Z,7.68
2023-03-31T20:51:39.857Z,7.69
2023-03-31T20:54:07.849Z,7.65
2023-03-31T20:56:37.855Z,7.65
2023-03-31T20:59:06.137Z,7.83
2023-03-31T21:01:34.858Z,7.74
2023-03-31T21:04:03.206Z,7.71
2023-03-31T21:06:36.475Z,7.87
2023-03-31T21:09:03.222Z,7.95
2023-03-31T21:11:29.960Z,7.86
2023-03-31T21:13:56.588Z,7.83
2023-03-31T21:16:23.695Z,7.67
2023-03-31T21:18:59.329Z,7.73
2023-03-31T21:21:27.317Z,7.69
2023-03-31T21:23:54.490Z,7.87
2023-03-31T21:26:22.522Z,7.51
2023-03-31T21:28:53.983Z,7.71
2023-03-31T21:31:24.148Z,7.64
2023-03-31T21:33:52.332Z,7.57
2023-03-31T21:36:22.738Z,7.44
2023-03-31T21:38:51.996Z,7.39
2023-03-31T21:41:24.596Z,7.30
2023-03-31T21:43:51.649Z,7.50
2023-03-31T21:46:21.167Z,7.37
2023-03-31T21:48:48.806Z,7.32
2023-03-31T21:51:16.454Z,7.42
2023-03-31T21:53:43.009Z,7.27
2023-03-31T21:56:09.854Z,7.21
2023-03-31T21:58:36.756Z,7.16
2023-03-31T22:01:04.620Z,7.21
2023-03-31T22:03:34.596Z,7.15
2023-03-31T22:06:03.633Z,7.25
2023-03-31T22:08:31.636Z,7.28
2023-03-31T22:11:00.464Z,7.19
2023-03-31T22:13:29.188Z,7.14
2023-03-31T22:15:56.237Z,7.28
2023-03-31T22:18:23.232Z,7.25
2023-03-31T22:20:50.343Z,7.21
2023-03-31T22:23:17.410Z,7.21
2023-03-31T22:25:44.230Z,7.17
2023-03-31T22:28:11.090Z,7.27
2023-03-31T22:30:37.895Z,7.30
2023-03-31T22:33:04.744Z,7.46
2023-03-31T22:35:31.764Z,7.41
2023-03-31T22:37:58.700Z,7.38
2023-03-31T22:40:25.610Z,7.14
2023-03-31T22:42:54.673Z,7.21
2023-03-31T22:45:21.454Z,7.22
2023-03-31T22:47:48.531Z,7.20
2023-03-31T22:50:15.581Z,7.11
2023-03-31T22:52:42.389Z,6.96
2023-03-31T22:55:09.190Z,6.66
2023-03-31T22:57:36.166Z,6.43
2023-03-31T23:00:04.134Z,6.45
2023-03-31T23:02:30.940Z,6.38
2023-03-31T23:04:57.739Z,6.25
2023-03-31T23:07:24.287Z,6.30
2023-03-31T23:09:51.127Z,6.36
2023-03-31T23:12:17.713Z,6.33
2023-03-31T23:14:44.373Z,6.44
2023-03-31T23:17:11.294Z,6.41
2023-03-31T23:19:38.809Z,6.30
2023-03-31T23:22:06.171Z,6.21
2023-03-31T23:24:36.171Z,6.23
2023-03-31T23:27:02.706Z,6.15
2023-03-31T23:29:30.818Z,6.14
2023-03-31T23:31:57.740Z,6.23
2023-03-31T23:34:24.544Z,5.93
2023-03-31T23:36:52.640Z,5.86
2023-03-31T23:39:19.254Z,5.63
2023-03-31T23:41:45.818Z,5.49
2023-03-31T23:44:13.072Z,5.45
2023-03-31T23:46:41.960Z,5.51
2023-03-31T23:49:09.392Z,5.45
2023-03-31T23:51:36.271Z,5.36
2023-03-31T23:54:03.222Z,5.33
2023-03-31T23:56:30.702Z,5.42
2023-03-31T23:58:57.383Z,5.39
